NJE5H EGKK-EGTE
Flight info
| Callsign | NJE5H |
|---|---|
| Flight time | N/A |
| Altitude | 24000 |
| Route | NOVMA L620 GIBSO |
| Aircraft | C25C/M-SDE2E3FGHRWXY/LB1 |
Departure
| Time | 2026-04-16 22:58 |
|---|---|
| Airport | London Gatwick Airport (EGKK) |
Arrival
| Time | N/A |
|---|---|
| Airport | Exeter International Airport (EGTE) |
| Time | Latitude | Longitude | Altitude | Speed | Heading |
|---|---|---|---|---|---|
| 2026-04-16 22:34 | 51.15439 | -0.18613 | 198 ft | 0 kts | 78° |
| 2026-04-16 22:45 | 51.15434 | -0.18610 | 198 ft | 2 kts | 198° |
| 2026-04-16 22:46 | 51.15436 | -0.18637 | 201 ft | 6 kts | 269° |
| 2026-04-16 22:46 | 51.15435 | -0.18644 | 198 ft | 0 kts | 256° |
| 2026-04-16 22:46 | 51.15432 | -0.18664 | 198 ft | 0 kts | 259° |
| 2026-04-16 22:51 | 51.15430 | -0.18686 | 201 ft | 6 kts | 257° |
| 2026-04-16 22:52 | 51.15407 | -0.18769 | 201 ft | 7 kts | 196° |
| 2026-04-16 22:52 | 51.15368 | -0.18759 | 198 ft | 7 kts | 168° |
| 2026-04-16 22:52 | 51.15313 | -0.18740 | 198 ft | 9 kts | 168° |
| 2026-04-16 22:52 | 51.15241 | -0.18713 | 198 ft | 12 kts | 167° |
| 2026-04-16 22:53 | 51.15157 | -0.18679 | 203 ft | 13 kts | 149° |
| 2026-04-16 22:53 | 51.15148 | -0.18553 | 200 ft | 12 kts | 78° |
| 2026-04-16 22:53 | 51.15166 | -0.18412 | 198 ft | 14 kts | 78° |
| 2026-04-16 22:53 | 51.15185 | -0.18255 | 204 ft | 15 kts | 79° |
| 2026-04-16 22:54 | 51.15207 | -0.18094 | 200 ft | 15 kts | 78° |
| 2026-04-16 22:54 | 51.15229 | -0.17938 | 198 ft | 14 kts | 76° |
| 2026-04-16 22:54 | 51.15249 | -0.17790 | 198 ft | 14 kts | 78° |
| 2026-04-16 22:54 | 51.15271 | -0.17639 | 198 ft | 14 kts | 77° |
| 2026-04-16 22:55 | 51.15291 | -0.17485 | 203 ft | 14 kts | 82° |
| 2026-04-16 22:55 | 51.15298 | -0.17407 | 198 ft | 7 kts | 83° |
| 2026-04-16 22:55 | 51.15303 | -0.17317 | 208 ft | 9 kts | 82° |
| 2026-04-16 22:55 | 51.15299 | -0.17222 | 207 ft | 9 kts | 153° |
| 2026-04-16 22:56 | 51.15246 | -0.17176 | 200 ft | 9 kts | 144° |
| 2026-04-16 22:56 | 51.15194 | -0.17118 | 199 ft | 9 kts | 145° |
| 2026-04-16 22:56 | 51.15170 | -0.17091 | 208 ft | 1 kts | 144° |
| 2026-04-16 22:56 | 51.15201 | -0.17033 | 199 ft | 7 kts | 75° |
| 2026-04-16 22:57 | 51.15212 | -0.16937 | 199 ft | 9 kts | 78° |
| 2026-04-16 22:57 | 51.15208 | -0.16814 | 201 ft | 13 kts | 125° |
| 2026-04-16 22:57 | 51.15127 | -0.16808 | 196 ft | 14 kts | 226° |
| 2026-04-16 22:57 | 51.15087 | -0.17026 | 198 ft | 54 kts | 257° |
| 2026-04-16 22:58 | 51.14920 | -0.18231 | 209 ft | 161 kts | 257° |
| 2026-04-16 22:58 | 51.14630 | -0.20214 | 856 ft | 201 kts | 256° |
| 2026-04-16 22:58 | 51.14278 | -0.22350 | 2494 ft | 186 kts | 254° |
| 2026-04-16 22:58 | 51.13940 | -0.24394 | 3858 ft | 200 kts | 256° |
| 2026-04-16 22:59 | 51.13578 | -0.26481 | 3753 ft | 192 kts | 254° |
| 2026-04-16 22:59 | 51.13193 | -0.28493 | 3615 ft | 188 kts | 252° |
| 2026-04-16 22:59 | 51.12781 | -0.30470 | 3478 ft | 187 kts | 251° |
| 2026-04-16 22:59 | 51.12580 | -0.32452 | 3334 ft | 186 kts | 275° |
| 2026-04-16 23:00 | 51.12628 | -0.34498 | 3354 ft | 189 kts | 264° |
| 2026-04-16 23:00 | 51.12395 | -0.36615 | 3462 ft | 200 kts | 258° |
| 2026-04-16 23:00 | 51.12077 | -0.38822 | 3577 ft | 209 kts | 256° |
| 2026-04-16 23:00 | 51.11727 | -0.41109 | 3695 ft | 217 kts | 252° |
| 2026-04-16 23:01 | 51.10999 | -0.43252 | 3750 ft | 226 kts | 233° |
| 2026-04-16 23:01 | 51.10294 | -0.45509 | 3770 ft | 234 kts | 256° |
| 2026-04-16 23:01 | 51.09908 | -0.48025 | 3798 ft | 240 kts | 254° |
| 2026-04-16 23:01 | 51.09402 | -0.50532 | 4026 ft | 238 kts | 251° |
| 2026-04-16 23:02 | 51.08782 | -0.53194 | 4616 ft | 282 kts | 249° |
| 2026-04-16 23:02 | 51.08147 | -0.55902 | 5201 ft | 248 kts | 250° |
| 2026-04-16 23:02 | 51.07576 | -0.58385 | 5769 ft | 233 kts | 250° |
| 2026-04-16 23:02 | 51.07019 | -0.60837 | 6338 ft | 238 kts | 250° |
| 2026-04-16 23:03 | 51.06445 | -0.63327 | 6914 ft | 242 kts | 250° |
| 2026-04-16 23:03 | 51.05867 | -0.65854 | 7479 ft | 245 kts | 250° |
| 2026-04-16 23:03 | 51.05291 | -0.68345 | 8037 ft | 247 kts | 250° |
| 2026-04-16 23:03 | 51.04697 | -0.70927 | 8615 ft | 249 kts | 250° |
| 2026-04-16 23:04 | 51.04109 | -0.73478 | 9180 ft | 250 kts | 250° |
| 2026-04-16 23:04 | 51.03554 | -0.76136 | 9758 ft | 250 kts | 258° |
| 2026-04-16 23:04 | 51.03229 | -0.78807 | 10322 ft | 250 kts | 257° |
| 2026-04-16 23:04 | 51.02840 | -0.81500 | 10892 ft | 251 kts | 257° |
| 2026-04-16 23:05 | 51.02462 | -0.84208 | 11463 ft | 252 kts | 257° |
| 2026-04-16 23:05 | 51.02092 | -0.86948 | 12036 ft | 255 kts | 258° |
| 2026-04-16 23:05 | 51.01713 | -0.89723 | 12610 ft | 258 kts | 258° |
| 2026-04-16 23:05 | 51.01333 | -0.92517 | 13183 ft | 260 kts | 258° |
| 2026-04-16 23:06 | 51.00951 | -0.95327 | 13756 ft | 261 kts | 258° |
| 2026-04-16 23:06 | 51.00568 | -0.98151 | 14329 ft | 262 kts | 258° |
| 2026-04-16 23:06 | 51.00190 | -1.00941 | 14893 ft | 262 kts | 258° |
| 2026-04-16 23:06 | 50.99798 | -1.03763 | 15463 ft | 262 kts | 258° |
| 2026-04-16 23:07 | 50.99410 | -1.06579 | 16032 ft | 261 kts | 257° |
| 2026-04-16 23:07 | 50.99024 | -1.09386 | 16601 ft | 260 kts | 258° |
| 2026-04-16 23:07 | 50.98636 | -1.12180 | 17168 ft | 259 kts | 258° |
| 2026-04-16 23:07 | 50.98253 | -1.14960 | 17736 ft | 257 kts | 257° |
| 2026-04-16 23:08 | 50.97868 | -1.17730 | 18301 ft | 256 kts | 258° |
| 2026-04-16 23:08 | 50.97490 | -1.20446 | 18858 ft | 255 kts | 257° |
| 2026-04-16 23:08 | 50.97110 | -1.23185 | 19423 ft | 254 kts | 257° |
| 2026-04-16 23:08 | 50.96729 | -1.25908 | 19988 ft | 252 kts | 258° |
| 2026-04-16 23:09 | 50.96350 | -1.28620 | 20552 ft | 251 kts | 257° |
| 2026-04-16 23:09 | 50.95974 | -1.31316 | 21115 ft | 250 kts | 257° |
| 2026-04-16 23:09 | 50.95596 | -1.33992 | 21678 ft | 248 kts | 257° |
| 2026-04-16 23:09 | 50.95115 | -1.36599 | 22238 ft | 245 kts | 254° |
| 2026-04-16 23:10 | 50.94705 | -1.39210 | 22800 ft | 243 kts | 256° |
| 2026-04-16 23:10 | 50.94295 | -1.41787 | 23359 ft | 240 kts | 255° |
| 2026-04-16 23:10 | 50.93866 | -1.44316 | 23743 ft | 246 kts | 255° |
| 2026-04-16 23:10 | 50.93399 | -1.47021 | 23793 ft | 264 kts | 255° |
| 2026-04-16 23:11 | 50.92898 | -1.49937 | 23810 ft | 283 kts | 255° |
| 2026-04-16 23:11 | 50.92372 | -1.53026 | 23897 ft | 296 kts | 255° |
| 2026-04-16 23:11 | 50.91825 | -1.56224 | 24005 ft | 307 kts | 255° |
| 2026-04-16 23:11 | 50.91250 | -1.59566 | 24012 ft | 321 kts | 255° |
| 2026-04-16 23:12 | 50.90655 | -1.63040 | 24012 ft | 332 kts | 255° |
| 2026-04-16 23:12 | 50.90034 | -1.66628 | 24012 ft | 343 kts | 255° |
| 2026-04-16 23:12 | 50.89401 | -1.70314 | 24011 ft | 352 kts | 255° |
| 2026-04-16 23:12 | 50.88744 | -1.74095 | 24013 ft | 359 kts | 255° |
| 2026-04-16 23:13 | 50.88089 | -1.77885 | 24010 ft | 366 kts | 255° |
| 2026-04-16 23:13 | 50.87408 | -1.81794 | 24009 ft | 371 kts | 255° |
| 2026-04-16 23:13 | 50.86717 | -1.85762 | 24009 ft | 376 kts | 255° |
| 2026-04-16 23:13 | 50.86019 | -1.89770 | 24008 ft | 380 kts | 255° |
| 2026-04-16 23:14 | 50.85310 | -1.93811 | 24008 ft | 383 kts | 255° |
| 2026-04-16 23:14 | 50.84597 | -1.97894 | 24008 ft | 386 kts | 255° |
| 2026-04-16 23:14 | 50.83873 | -2.01996 | 24010 ft | 388 kts | 255° |
| 2026-04-16 23:14 | 50.83149 | -2.06122 | 24010 ft | 390 kts | 254° |
| 2026-04-16 23:15 | 50.81695 | -2.14351 | 24008 ft | 393 kts | 254° |
| 2026-04-16 23:15 | 50.80955 | -2.18514 | 24009 ft | 394 kts | 254° |
| 2026-04-16 23:15 | 50.80214 | -2.22689 | 24009 ft | 394 kts | 254° |
| 2026-04-16 23:16 | 50.79471 | -2.26863 | 24008 ft | 395 kts | 254° |
| 2026-04-16 23:16 | 50.78722 | -2.31043 | 24010 ft | 396 kts | 254° |
| 2026-04-16 23:16 | 50.77975 | -2.35226 | 24009 ft | 396 kts | 254° |
| 2026-04-16 23:16 | 50.77219 | -2.39417 | 24010 ft | 396 kts | 254° |
| 2026-04-16 23:17 | 50.76469 | -2.43606 | 24009 ft | 397 kts | 254° |
| 2026-04-16 23:17 | 50.75720 | -2.47739 | 24010 ft | 397 kts | 254° |
| 2026-04-16 23:17 | 50.75060 | -2.51960 | 24002 ft | 397 kts | 262° |
| 2026-04-16 23:17 | 50.75083 | -2.56318 | 23996 ft | 397 kts | 272° |
| 2026-04-16 23:18 | 50.75174 | -2.60663 | 23998 ft | 397 kts | 272° |
| 2026-04-16 23:18 | 50.75284 | -2.65026 | 24000 ft | 397 kts | 272° |
| 2026-04-16 23:18 | 50.75388 | -2.69382 | 24001 ft | 397 kts | 272° |
| 2026-04-16 23:18 | 50.75486 | -2.73735 | 24002 ft | 397 kts | 272° |
| 2026-04-16 23:19 | 50.75578 | -2.78099 | 24003 ft | 397 kts | 272° |
| 2026-04-16 23:19 | 50.75673 | -2.82460 | 24003 ft | 397 kts | 272° |
| 2026-04-16 23:19 | 50.75766 | -2.86751 | 24004 ft | 397 kts | 272° |
| 2026-04-16 23:19 | 50.75857 | -2.91110 | 24004 ft | 397 kts | 272° |
| 2026-04-16 23:20 | 50.75948 | -2.95471 | 24004 ft | 397 kts | 272° |
| 2026-04-16 23:20 | 50.76034 | -2.99837 | 24004 ft | 397 kts | 271° |
| 2026-04-16 23:20 | 50.76123 | -3.04200 | 24004 ft | 397 kts | 272° |
| 2026-04-16 23:20 | 50.76205 | -3.08557 | 24005 ft | 397 kts | 271° |
| 2026-04-16 23:21 | 50.76291 | -3.12933 | 23566 ft | 392 kts | 271° |
| 2026-04-16 23:21 | 50.76366 | -3.17052 | 22900 ft | 371 kts | 271° |
| 2026-04-16 23:21 | 50.76432 | -3.21042 | 21963 ft | 361 kts | 270° |
| 2026-04-16 23:21 | 50.76010 | -3.24867 | 21001 ft | 351 kts | 250° |
| 2026-04-16 23:22 | 50.74686 | -3.28018 | 20034 ft | 344 kts | 223° |
| 2026-04-16 23:22 | 50.72652 | -3.29862 | 19061 ft | 337 kts | 197° |
| 2026-04-16 23:22 | 50.70347 | -3.30031 | 18110 ft | 332 kts | 169° |
| 2026-04-16 23:22 | 50.68285 | -3.28531 | 17152 ft | 327 kts | 141° |
| 2026-04-16 23:23 | 50.66933 | -3.25727 | 16199 ft | 323 kts | 113° |
| 2026-04-16 23:23 | 50.66583 | -3.22299 | 15242 ft | 315 kts | 85° |
| 2026-04-16 23:23 | 50.67289 | -3.19190 | 14281 ft | 293 kts | 54° |
| 2026-04-16 23:23 | 50.68763 | -3.17255 | 13332 ft | 274 kts | 23° |
| 2026-04-16 23:24 | 50.70588 | -3.16876 | 12379 ft | 262 kts | 353° |
| 2026-04-16 23:24 | 50.72349 | -3.17358 | 11430 ft | 254 kts | 345° |
| 2026-04-16 23:24 | 50.74021 | -3.18144 | 10481 ft | 248 kts | 342° |
| 2026-04-16 23:24 | 50.75642 | -3.18984 | 9537 ft | 244 kts | 341° |
| 2026-04-16 23:25 | 50.77149 | -3.20112 | 8585 ft | 239 kts | 317° |
| 2026-04-16 23:25 | 50.77925 | -3.22349 | 7656 ft | 229 kts | 280° |
| 2026-04-16 23:25 | 50.77651 | -3.24640 | 6532 ft | 215 kts | 234° |
| 2026-04-16 23:25 | 50.76633 | -3.25974 | 5444 ft | 171 kts | 228° |
| 2026-04-16 23:26 | 50.76174 | -3.26747 | 2763 ft | 141 kts | 213° |